DLH714 EDDM-RJTT
Flight info
| Callsign | DLH714 |
|---|---|
| Flight time | N/A |
| Altitude | 35000 |
| Route | KIRDI3S KIRDI DCT BUWOQ DCT OBFEZ DCT STEIN DCT TEGRI DCT LUGEB DCT UDROS UM859 KARDE UL851 TBN UM11 REBLO/N0496F370 M11 MATAL T916 BALUN/K0915F370 T916 PIGAL M610 BASPI/K0896F390 M610 RULAD/K0893S1190 A343 POSOT B215 FKG W188 LIKMI W270 DKO W69 HUR B339 LADIX/K0907S1250 W34 VAPGU W100 ORAVA W201 UNSEK A326 DONVO G597 AGAVO/N0492F410 Y644 EGOBA Y697 LANAT Y71 XAC |
| Aircraft | A359/H-SADE2E3GHIJ1J2J3J4J5M1P2RWXYZ/LB1D1 |
Departure
| Time | 2026-05-07 18:55 |
|---|---|
| Airport | Munich Airport (EDDM) |
Arrival
| Time | N/A |
|---|---|
| Airport | Tokyo Haneda International Airport (RJTT) |
| Time | Latitude | Longitude | Altitude | Speed | Heading |
|---|---|---|---|---|---|
| 2026-05-07 18:26 | 48.35788 | 11.79248 | 1477 ft | 0 kts | 263° |
| 2026-05-07 18:39 | 48.35789 | 11.79269 | 1478 ft | 4 kts | 263° |
| 2026-05-07 18:39 | 48.35793 | 11.79309 | 1491 ft | 4 kts | 263° |
| 2026-05-07 18:40 | 48.35795 | 11.79342 | 1479 ft | 4 kts | 257° |
| 2026-05-07 18:40 | 48.35806 | 11.79376 | 1482 ft | 4 kts | 218° |
| 2026-05-07 18:40 | 48.35828 | 11.79389 | 1491 ft | 3 kts | 174° |
| 2026-05-07 18:40 | 48.35854 | 11.79385 | 1491 ft | 4 kts | 173° |
| 2026-05-07 18:41 | 48.35862 | 11.79383 | 1485 ft | 0 kts | 173° |
| 2026-05-07 18:43 | 48.35860 | 11.79384 | 1491 ft | 2 kts | 173° |
| 2026-05-07 18:44 | 48.35814 | 11.79391 | 1478 ft | 11 kts | 173° |
| 2026-05-07 18:44 | 48.35721 | 11.79407 | 1478 ft | 14 kts | 173° |
| 2026-05-07 18:44 | 48.35623 | 11.79424 | 1478 ft | 14 kts | 173° |
| 2026-05-07 18:44 | 48.35548 | 11.79438 | 1487 ft | 6 kts | 173° |
| 2026-05-07 18:45 | 48.35539 | 11.79439 | 1491 ft | 0 kts | 173° |
| 2026-05-07 18:49 | 48.35521 | 11.79442 | 1481 ft | 7 kts | 173° |
| 2026-05-07 18:49 | 48.35457 | 11.79504 | 1482 ft | 15 kts | 130° |
| 2026-05-07 18:49 | 48.35374 | 11.79601 | 1491 ft | 15 kts | 164° |
| 2026-05-07 18:50 | 48.35270 | 11.79622 | 1488 ft | 15 kts | 173° |
| 2026-05-07 18:50 | 48.35163 | 11.79640 | 1476 ft | 15 kts | 173° |
| 2026-05-07 18:50 | 48.35056 | 11.79659 | 1476 ft | 16 kts | 173° |
| 2026-05-07 18:50 | 48.34949 | 11.79677 | 1483 ft | 14 kts | 173° |
| 2026-05-07 18:51 | 48.34894 | 11.79687 | 1478 ft | 6 kts | 173° |
| 2026-05-07 18:51 | 48.34885 | 11.79689 | 1491 ft | 0 kts | 173° |
| 2026-05-07 18:52 | 48.34874 | 11.79691 | 1491 ft | 5 kts | 173° |
| 2026-05-07 18:52 | 48.34819 | 11.79715 | 1478 ft | 10 kts | 137° |
| 2026-05-07 18:52 | 48.34813 | 11.79839 | 1485 ft | 14 kts | 83° |
| 2026-05-07 18:53 | 48.34826 | 11.80012 | 1478 ft | 19 kts | 83° |
| 2026-05-07 18:53 | 48.34842 | 11.80223 | 1477 ft | 21 kts | 85° |
| 2026-05-07 18:53 | 48.34802 | 11.80372 | 1483 ft | 17 kts | 146° |
| 2026-05-07 18:53 | 48.34675 | 11.80408 | 1483 ft | 20 kts | 173° |
| 2026-05-07 18:54 | 48.34620 | 11.80418 | 1491 ft | 6 kts | 173° |
| 2026-05-07 18:54 | 48.34524 | 11.80432 | 1480 ft | 19 kts | 182° |
| 2026-05-07 18:54 | 48.34467 | 11.80280 | 1481 ft | 24 kts | 263° |
| 2026-05-07 18:54 | 48.34424 | 11.79722 | 1486 ft | 87 kts | 263° |
| 2026-05-07 18:55 | 48.34329 | 11.78502 | 1478 ft | 146 kts | 263° |
| 2026-05-07 18:55 | 48.34194 | 11.76748 | 1708 ft | 177 kts | 264° |
| 2026-05-07 18:55 | 48.34047 | 11.74954 | 2457 ft | 175 kts | 264° |
| 2026-05-07 18:55 | 48.33835 | 11.73072 | 2782 ft | 191 kts | 252° |
| 2026-05-07 18:56 | 48.33044 | 11.71416 | 2887 ft | 210 kts | 215° |
| 2026-05-07 18:56 | 48.31626 | 11.70765 | 3151 ft | 220 kts | 183° |
| 2026-05-07 18:56 | 48.30079 | 11.70715 | 3569 ft | 224 kts | 180° |
| 2026-05-07 18:56 | 48.28531 | 11.71113 | 3960 ft | 229 kts | 158° |
| 2026-05-07 18:57 | 48.27089 | 11.72325 | 4159 ft | 247 kts | 147° |
| 2026-05-07 18:57 | 48.25626 | 11.73843 | 4352 ft | 263 kts | 146° |
| 2026-05-07 18:57 | 48.24120 | 11.75417 | 4776 ft | 270 kts | 146° |
| 2026-05-07 18:57 | 48.22557 | 11.77034 | 5294 ft | 273 kts | 147° |
| 2026-05-07 18:58 | 48.20970 | 11.78647 | 5892 ft | 275 kts | 147° |
| 2026-05-07 18:58 | 48.19451 | 11.80409 | 6447 ft | 279 kts | 136° |
| 2026-05-07 18:58 | 48.18431 | 11.82896 | 6998 ft | 286 kts | 107° |
| 2026-05-07 18:58 | 48.18268 | 11.85824 | 7563 ft | 289 kts | 86° |
| 2026-05-07 18:59 | 48.18445 | 11.88847 | 8130 ft | 292 kts | 87° |
| 2026-05-07 18:59 | 48.18535 | 11.91911 | 8669 ft | 297 kts | 89° |
| 2026-05-07 18:59 | 48.18603 | 11.95028 | 9238 ft | 300 kts | 89° |
| 2026-05-07 18:59 | 48.18676 | 11.98176 | 9825 ft | 303 kts | 89° |
| 2026-05-07 19:00 | 48.18756 | 12.01364 | 10286 ft | 312 kts | 88° |
| 2026-05-07 19:00 | 48.18843 | 12.04700 | 10535 ft | 328 kts | 88° |
| 2026-05-07 19:00 | 48.18939 | 12.08207 | 10778 ft | 344 kts | 88° |
| 2026-05-07 19:00 | 48.19040 | 12.11834 | 11015 ft | 359 kts | 88° |
| 2026-05-07 19:01 | 48.19145 | 12.15659 | 11249 ft | 374 kts | 88° |
| 2026-05-07 19:01 | 48.19253 | 12.19627 | 11481 ft | 388 kts | 88° |
| 2026-05-07 19:01 | 48.19363 | 12.23744 | 11704 ft | 400 kts | 88° |
| 2026-05-07 19:01 | 48.19472 | 12.27900 | 12126 ft | 406 kts | 88° |
| 2026-05-07 19:02 | 48.19584 | 12.32168 | 12646 ft | 410 kts | 88° |
| 2026-05-07 19:02 | 48.19694 | 12.36457 | 13198 ft | 412 kts | 88° |
| 2026-05-07 19:02 | 48.19804 | 12.40789 | 13713 ft | 416 kts | 88° |
| 2026-05-07 19:02 | 48.19913 | 12.45147 | 14230 ft | 419 kts | 88° |
| 2026-05-07 19:03 | 48.20020 | 12.49468 | 14770 ft | 420 kts | 88° |
| 2026-05-07 19:03 | 48.20126 | 12.53876 | 15278 ft | 423 kts | 88° |
| 2026-05-07 19:03 | 48.20232 | 12.58299 | 15787 ft | 425 kts | 88° |
| 2026-05-07 19:03 | 48.20336 | 12.62746 | 16263 ft | 428 kts | 88° |
| 2026-05-07 19:04 | 48.20439 | 12.67227 | 16728 ft | 430 kts | 88° |
| 2026-05-07 19:04 | 48.20541 | 12.71725 | 17209 ft | 433 kts | 88° |
| 2026-05-07 19:04 | 48.20641 | 12.76198 | 17654 ft | 435 kts | 88° |
| 2026-05-07 19:04 | 48.20741 | 12.80757 | 18145 ft | 437 kts | 88° |
| 2026-05-07 19:05 | 48.20839 | 12.85352 | 18620 ft | 440 kts | 89° |
| 2026-05-07 19:05 | 48.20919 | 12.89904 | 19072 ft | 442 kts | 89° |
| 2026-05-07 19:05 | 48.20985 | 12.94549 | 19561 ft | 444 kts | 89° |
| 2026-05-07 19:05 | 48.21045 | 12.99192 | 20085 ft | 446 kts | 89° |
| 2026-05-07 19:06 | 48.21104 | 13.03863 | 20541 ft | 448 kts | 90° |
| 2026-05-07 19:06 | 48.21224 | 13.13211 | 21488 ft | 452 kts | 90° |
| 2026-05-07 19:06 | 48.21284 | 13.17947 | 21959 ft | 454 kts | 90° |
| 2026-05-07 19:07 | 48.21343 | 13.22710 | 22405 ft | 456 kts | 90° |
| 2026-05-07 19:07 | 48.21402 | 13.27480 | 22832 ft | 458 kts | 90° |
| 2026-05-07 19:07 | 48.21457 | 13.32206 | 23289 ft | 459 kts | 90° |
| 2026-05-07 19:07 | 48.21512 | 13.37001 | 23741 ft | 461 kts | 91° |
| 2026-05-07 19:08 | 48.21558 | 13.41826 | 24153 ft | 462 kts | 91° |
| 2026-05-07 19:08 | 48.21603 | 13.46658 | 24564 ft | 464 kts | 90° |
| 2026-05-07 19:08 | 48.21650 | 13.51520 | 24944 ft | 467 kts | 91° |
| 2026-05-07 19:08 | 48.21699 | 13.56403 | 25325 ft | 469 kts | 91° |
| 2026-05-07 19:09 | 48.21749 | 13.61317 | 25705 ft | 471 kts | 91° |
| 2026-05-07 19:09 | 48.21795 | 13.66196 | 26052 ft | 473 kts | 91° |
| 2026-05-07 19:09 | 48.21838 | 13.71149 | 26412 ft | 475 kts | 92° |
| 2026-05-07 19:09 | 48.21879 | 13.76135 | 26773 ft | 477 kts | 92° |
| 2026-05-07 19:10 | 48.21917 | 13.81074 | 27100 ft | 480 kts | 92° |
| 2026-05-07 19:10 | 48.21953 | 13.86097 | 27420 ft | 482 kts | 92° |
| 2026-05-07 19:10 | 48.21984 | 13.91153 | 27726 ft | 484 kts | 92° |
| 2026-05-07 19:10 | 48.21797 | 13.96130 | 28027 ft | 482 kts | 101° |
| 2026-05-07 19:11 | 48.21138 | 14.01063 | 28315 ft | 480 kts | 109° |
| 2026-05-07 19:11 | 48.20034 | 14.05795 | 28601 ft | 479 kts | 115° |
| 2026-05-07 19:11 | 48.18771 | 14.10438 | 28882 ft | 480 kts | 116° |
| 2026-05-07 19:11 | 48.17453 | 14.14981 | 29146 ft | 481 kts | 117° |
| 2026-05-07 19:12 | 48.16085 | 14.19572 | 29486 ft | 480 kts | 118° |
| 2026-05-07 19:12 | 48.14714 | 14.24141 | 29867 ft | 479 kts | 118° |
| 2026-05-07 19:12 | 48.13350 | 14.28701 | 30197 ft | 478 kts | 118° |
| 2026-05-07 19:12 | 48.11992 | 14.33260 | 30498 ft | 478 kts | 118° |
| 2026-05-07 19:13 | 48.10636 | 14.37826 | 30664 ft | 482 kts | 118° |
| 2026-05-07 19:13 | 48.09289 | 14.42366 | 30853 ft | 484 kts | 118° |
| 2026-05-07 19:13 | 48.07921 | 14.46984 | 31082 ft | 485 kts | 118° |
| 2026-05-07 19:13 | 48.06543 | 14.51627 | 31287 ft | 486 kts | 118° |
| 2026-05-07 19:14 | 48.05169 | 14.56252 | 31494 ft | 487 kts | 118° |
| 2026-05-07 19:14 | 48.03788 | 14.60894 | 31660 ft | 489 kts | 118° |
| 2026-05-07 19:14 | 48.02418 | 14.65487 | 31877 ft | 490 kts | 118° |
| 2026-05-07 19:14 | 48.01025 | 14.70153 | 32083 ft | 491 kts | 118° |
| 2026-05-07 19:15 | 47.99626 | 14.74824 | 32244 ft | 492 kts | 118° |
| 2026-05-07 19:15 | 47.98220 | 14.79508 | 32390 ft | 494 kts | 119° |
| 2026-05-07 19:15 | 47.95389 | 14.88944 | 32458 ft | 503 kts | 118° |
| 2026-05-07 19:16 | 47.93965 | 14.93713 | 32737 ft | 501 kts | 119° |
| 2026-05-07 19:16 | 47.92533 | 14.98452 | 32948 ft | 501 kts | 119° |
| 2026-05-07 19:16 | 47.91087 | 15.03201 | 33090 ft | 503 kts | 120° |
| 2026-05-07 19:16 | 47.89637 | 15.07954 | 33307 ft | 502 kts | 120° |
| 2026-05-07 19:17 | 47.88206 | 15.12641 | 33496 ft | 503 kts | 120° |
| 2026-05-07 19:17 | 47.86754 | 15.17394 | 33683 ft | 503 kts | 120° |
| 2026-05-07 19:17 | 47.85302 | 15.22148 | 33880 ft | 503 kts | 120° |
| 2026-05-07 19:17 | 47.83845 | 15.26911 | 34082 ft | 503 kts | 120° |
| 2026-05-07 19:18 | 47.82392 | 15.31654 | 34263 ft | 503 kts | 120° |
| 2026-05-07 19:18 | 47.80955 | 15.36338 | 34435 ft | 503 kts | 120° |
| 2026-05-07 19:18 | 47.79511 | 15.41090 | 34635 ft | 502 kts | 120° |
| 2026-05-07 19:18 | 47.78084 | 15.45821 | 34813 ft | 502 kts | 120° |
| 2026-05-07 19:19 | 47.76653 | 15.50565 | 34958 ft | 502 kts | 119° |
| 2026-05-07 19:19 | 47.75214 | 15.55328 | 35025 ft | 504 kts | 120° |
| 2026-05-07 19:19 | 47.72305 | 15.64900 | 35023 ft | 510 kts | 120° |
| 2026-05-07 19:20 | 47.69391 | 15.74442 | 35029 ft | 509 kts | 120° |
| 2026-05-07 19:20 | 47.66456 | 15.84020 | 35030 ft | 508 kts | 120° |
| 2026-05-07 19:21 | 47.64014 | 15.91966 | 35026 ft | 508 kts | 120° |
| 2026-05-07 19:21 | 47.60586 | 16.03037 | 35024 ft | 507 kts | 120° |